Weather History for KPHN - September, 2013

Change the Weather History Date:

Monday, September 9, 2013

  Actual Average (KMTC) Record (KMTC)
Temperature  
Mean Temperature 60 °F -  
Max Temperature 77 °F 75 °F 89 °F (1959)
Min Temperature 44 °F 55 °F 41 °F (1979)
Degree Days  
Heating Degree Days 4    
Growing Degree Days 10 (Base 50)    
Moisture  
Dew Point 59 °F    
Average Humidity 89    
Maximum Humidity 100    
Minimum Humidity 69    
Precipitation  
Precipitation 0.00 in - - ()
Sea Level Pressure  
Sea Level Pressure 30.02 in    
Wind  
Wind Speed 2 mph (South)    
Max Wind Speed 13 mph    
Max Gust Speed -    
Visibility 8 miles    
Events Fog , Rain    
Averages and records for this station are not official NWS values.
T = Trace of Precipitation, MM = Missing Value Source: NWS Daily Summary

Daily Weather History Graph

Daily Weather History Graph

Search for Another Location

Airport or City:

Trip Planner

Search our weather history database for the weather conditions in past years. The results will help you decide how hot, cold, wet, or windy it might be!

Date:

Astronomy

Sep. 09, 2013 Rise Set
Actual Time 7:03 AM EDT 7:50 PM EDT
Civil Twilight 6:34 AM EDT 8:18 PM EDT
Nautical Twilight 6:00 AM EDT 8:52 PM EDT
Astronomical Twilight 5:25 AM EDT 9:28 PM EDT
Moon 11:31 AM EDT (9/9) 9:58 PM EDT (9/9)
Length of Visible Light 13h 44m
Length of Day
12h 46m
Waxing Crescent, 19% of the Moon is Illuminated
Sep 9
Waxing Crescent
Sep 12
First Quarter
Sep 19
Full
Sep 26
Last Quarter
Oct 4
New

Hourly Weather History & Observations

Time (EDT) Temp. Dew Point Humidity Pressure Visibility Wind Dir Wind Speed Gust Speed Precip Events Conditions
12:16 AM 48.2 °F 48.2 °F 100% 30.09 in 3.0 mi Calm Calm - N/A   Clear
12:36 AM 46.4 °F 46.4 °F 100% 30.09 in 2.0 mi Calm Calm - N/A   Clear
12:56 AM 46.4 °F 46.4 °F 100% 30.09 in 0.8 mi Calm Calm - N/A   Mist
1:16 AM 48.2 °F 48.2 °F 100% 30.09 in 10.0 mi Calm Calm - N/A   Clear
1:36 AM 46.4 °F 46.4 °F 100% 30.09 in 10.0 mi Calm Calm - N/A   Clear
1:56 AM 48.2 °F 48.2 °F 100% 30.09 in 1.8 mi Calm Calm - N/A   Mist
2:16 AM 48.2 °F 48.2 °F 100% 30.09 in 10.0 mi Calm Calm - N/A   Clear
2:36 AM 48.2 °F 48.2 °F 100% 30.09 in 1.5 mi Calm Calm - N/A   Mist
2:56 AM 46.4 °F 46.4 °F 100% 30.09 in 1.2 mi Calm Calm - N/A   Mist
3:16 AM 46.4 °F 46.4 °F 100% 30.09 in 0.8 mi Calm Calm - N/A   Mist
3:36 AM 46.4 °F 46.4 °F 100% 30.09 in 0.8 mi Calm Calm - N/A   Mostly Cloudy
3:56 AM 46.4 °F 46.4 °F 100% 30.09 in 0.5 mi Calm Calm - N/A Fog Fog
4:16 AM 44.6 °F 44.6 °F 100% 30.09 in 0.8 mi Calm Calm - N/A   Mostly Cloudy
4:36 AM 46.4 °F 46.4 °F 100% 30.10 in 4.0 mi Calm Calm - N/A   Clear
4:56 AM 46.4 °F 46.4 °F 100% 30.10 in 7.0 mi Calm Calm - N/A   Clear
5:16 AM 46.4 °F 46.4 °F 100% 30.09 in 10.0 mi Calm Calm - N/A   Clear
5:36 AM 48.2 °F 48.2 °F 100% 30.09 in 10.0 mi Calm Calm - N/A   Clear
5:56 AM 50.0 °F 50.0 °F 100% 30.07 in 10.0 mi Calm Calm - N/A   Clear
6:16 AM 51.8 °F 51.8 °F 100% 30.06 in 10.0 mi Calm Calm - N/A   Clear
6:36 AM 51.8 °F 51.8 °F 100% 30.07 in 10.0 mi Calm Calm - N/A   Clear
6:56 AM 50.0 °F 50.0 °F 100% 30.06 in 7.0 mi Calm Calm - N/A   Clear
7:16 AM 50.0 °F 50.0 °F 100% 30.07 in 10.0 mi Calm Calm - N/A   Clear
7:36 AM 51.8 °F 51.8 °F 100% 30.08 in 7.0 mi Calm Calm - N/A   Clear
7:56 AM 51.8 °F 51.8 °F 100% 30.08 in 10.0 mi Calm Calm - N/A   Clear
8:16 AM 53.6 °F 53.6 °F 100% 30.07 in 10.0 mi Calm Calm - N/A   Clear
8:36 AM 57.2 °F 57.2 °F 100% 30.06 in 10.0 mi East 3.5 mph - N/A   Clear
8:56 AM 57.2 °F 57.2 °F 100% 30.07 in 10.0 mi Calm Calm - N/A   Scattered Clouds
9:16 AM 60.8 °F 57.2 °F 88% 30.07 in 10.0 mi SE 3.5 mph - N/A   Scattered Clouds
9:36 AM 64.4 °F 59.0 °F 83% 30.07 in 10.0 mi SSE 4.6 mph - N/A   Clear
9:56 AM 64.4 °F 59.0 °F 83% 30.06 in 10.0 mi SE 6.9 mph - N/A   Scattered Clouds
10:16 AM 66.2 °F 59.0 °F 78% 30.05 in 10.0 mi SSE 5.8 mph - N/A   Scattered Clouds
10:36 AM 66.2 °F 59.0 °F 78% 30.05 in 10.0 mi SSE 4.6 mph - N/A   Scattered Clouds
10:56 AM 68.0 °F 60.8 °F 78% 30.05 in 10.0 mi South 4.6 mph - N/A   Scattered Clouds
11:16 AM 68.0 °F 59.0 °F 73% 30.04 in 10.0 mi South 6.9 mph - N/A   Mostly Cloudy
11:36 AM 68.0 °F 59.0 °F 73% 30.04 in 10.0 mi South 6.9 mph - N/A   Overcast
11:56 AM 68.0 °F 60.8 °F 78% 30.05 in 10.0 mi SSE 4.6 mph - N/A   Overcast
12:16 PM 68.0 °F 60.8 °F 78% 30.06 in 10.0 mi South 4.6 mph - N/A   Overcast
12:36 PM 68.0 °F 60.8 °F 78% 30.05 in 10.0 mi South 5.8 mph - N/A   Overcast
12:56 PM 68.0 °F 60.8 °F 78% 30.04 in 10.0 mi SSE 3.5 mph - N/A   Overcast
1:16 PM 68.0 °F 60.8 °F 78% 30.03 in 10.0 mi South 3.5 mph - N/A   Overcast
1:36 PM 68.0 °F 60.8 °F 78% 30.02 in 10.0 mi SSE 5.8 mph - N/A Rain Light Rain
1:56 PM 69.8 °F 60.8 °F 73% 30.01 in 10.0 mi South 6.9 mph - N/A   Overcast
2:16 PM 69.8 °F 62.6 °F 78% 30.00 in 10.0 mi South 5.8 mph - N/A   Overcast
2:36 PM 71.6 °F 62.6 °F 73% 30.00 in 10.0 mi South 8.1 mph - N/A   Overcast
2:56 PM 73.4 °F 64.4 °F 73% 29.99 in 10.0 mi South 5.8 mph - N/A   Overcast
3:16 PM 73.4 °F 64.4 °F 73% 29.99 in 10.0 mi SSE 6.9 mph - N/A   Overcast
3:36 PM 75.2 °F 66.2 °F 73% 29.98 in 10.0 mi South 6.9 mph - N/A   Overcast
3:56 PM 75.2 °F 66.2 °F 73% 29.98 in 10.0 mi SSE 8.1 mph - N/A   Overcast
4:16 PM 75.2 °F 66.2 °F 73% 29.97 in 10.0 mi SSE 5.8 mph - N/A   Scattered Clouds
4:36 PM 75.2 °F 66.2 °F 73% 29.97 in 10.0 mi SSE 5.8 mph - N/A   Clear
4:56 PM 77.0 °F 66.2 °F 69% 29.97 in 10.0 mi SE 6.9 mph - N/A   Mostly Cloudy
5:16 PM 77.0 °F 68.0 °F 74% 29.96 in 10.0 mi SSE 5.8 mph - N/A   Scattered Clouds
5:36 PM 75.2 °F 68.0 °F 78% 29.95 in 10.0 mi South 6.9 mph - N/A   Clear
5:56 PM 77.0 °F 68.0 °F 74% 29.95 in 10.0 mi South 6.9 mph - N/A   Clear
6:16 PM 75.2 °F 68.0 °F 78% 29.94 in 10.0 mi South 9.2 mph - N/A   Clear
6:36 PM 75.2 °F 68.0 °F 78% 29.94 in 10.0 mi South 10.4 mph - N/A   Clear
6:56 PM 73.4 °F 68.0 °F 83% 29.93 in 10.0 mi South 8.1 mph - N/A   Clear
7:16 PM 73.4 °F 68.0 °F 83% 29.94 in 10.0 mi South 8.1 mph - N/A   Clear
7:36 PM 71.6 °F 68.0 °F 88% 29.94 in 10.0 mi South 6.9 mph - N/A   Clear
7:56 PM 71.6 °F 68.0 °F 88% 29.94 in 10.0 mi South 6.9 mph - N/A   Clear
8:16 PM 69.8 °F 68.0 °F 94% 29.95 in 10.0 mi South 3.5 mph - N/A   Clear
8:36 PM 69.8 °F 68.0 °F 94% 29.95 in 10.0 mi SSE 3.5 mph - N/A   Clear
8:56 PM 69.8 °F 66.2 °F 88% 29.95 in 7.0 mi SSE 3.5 mph - N/A   Clear
9:16 PM 68.0 °F 66.2 °F 94% 29.94 in 7.0 mi SSE 6.9 mph - N/A   Clear
9:36 PM 68.0 °F 68.0 °F 100% 29.92 in 7.0 mi South 12.7 mph - N/A Rain Light Rain
9:56 PM 68.0 °F 68.0 °F 100% 29.93 in 5.0 mi South 9.2 mph - N/A   Clear
10:16 PM 68.0 °F 68.0 °F 100% 29.93 in 7.0 mi South 6.9 mph - N/A   Clear
10:36 PM 68.0 °F 66.2 °F 94% 29.93 in 7.0 mi South 3.5 mph - N/A   Clear
10:56 PM 68.0 °F 66.2 °F 94% 29.93 in 5.0 mi SSW 3.5 mph - N/A   Clear
11:16 PM 68.0 °F 66.2 °F 94% 29.92 in 5.0 mi SSW 4.6 mph - N/A   Mostly Cloudy
11:36 PM 68.0 °F 68.0 °F 100% 29.92 in 5.0 mi South 5.8 mph - N/A   Mostly Cloudy
11:56 PM 68.0 °F 66.2 °F 94% 29.91 in 5.0 mi SSW 3.5 mph - N/A   Scattered Clouds